sensor_id;sensor_type;location;lat;lon;timestamp;P1;durP1;ratioP1;P2;durP2;ratioP2
11139;SDS011;5624;49.388;11.350;2023-12-29T00:01:17;4.43;;;3.47;;
11139;SDS011;5624;49.388;11.350;2023-12-29T00:03:43;4.30;;;3.27;;
11139;SDS011;5624;49.388;11.350;2023-12-29T00:06:09;3.93;;;2.97;;
11139;SDS011;5624;49.388;11.350;2023-12-29T00:08:36;5.30;;;3.00;;
11139;SDS011;5624;49.388;11.350;2023-12-29T00:11:01;6.17;;;3.03;;
11139;SDS011;5624;49.388;11.350;2023-12-29T00:13:27;4.20;;;3.53;;
11139;SDS011;5624;49.388;11.350;2023-12-29T00:15:53;3.80;;;3.00;;
11139;SDS011;5624;49.388;11.350;2023-12-29T00:18:19;3.87;;;3.10;;
11139;SDS011;5624;49.388;11.350;2023-12-29T00:20:45;4.30;;;2.97;;
11139;SDS011;5624;49.388;11.350;2023-12-29T00:23:11;4.50;;;2.97;;
11139;SDS011;5624;49.388;11.350;2023-12-29T00:25:36;3.97;;;2.93;;
11139;SDS011;5624;49.388;11.350;2023-12-29T00:28:02;3.67;;;2.93;;
11139;SDS011;5624;49.388;11.350;2023-12-29T00:30:28;4.03;;;2.70;;
11139;SDS011;5624;49.388;11.350;2023-12-29T00:32:57;2.97;;;2.43;;
11139;SDS011;5624;49.388;11.350;2023-12-29T00:35:22;3.13;;;2.83;;
11139;SDS011;5624;49.388;11.350;2023-12-29T00:37:49;5.70;;;3.20;;
11139;SDS011;5624;49.388;11.350;2023-12-29T00:40:16;4.20;;;2.90;;
11139;SDS011;5624;49.388;11.350;2023-12-29T00:42:41;3.57;;;2.93;;
11139;SDS011;5624;49.388;11.350;2023-12-29T00:45:07;3.20;;;2.87;;
11139;SDS011;5624;49.388;11.350;2023-12-29T00:47:33;3.10;;;2.80;;
11139;SDS011;5624;49.388;11.350;2023-12-29T00:49:58;3.63;;;3.00;;
11139;SDS011;5624;49.388;11.350;2023-12-29T00:52:25;3.70;;;2.23;;
11139;SDS011;5624;49.388;11.350;2023-12-29T00:54:51;3.53;;;2.47;;
11139;SDS011;5624;49.388;11.350;2023-12-29T00:57:16;4.13;;;2.87;;
11139;SDS011;5624;49.388;11.350;2023-12-29T00:59:42;3.53;;;2.40;;
11139;SDS011;5624;49.388;11.350;2023-12-29T01:02:09;3.07;;;2.70;;
11139;SDS011;5624;49.388;11.350;2023-12-29T01:04:36;3.40;;;2.50;;
11139;SDS011;5624;49.388;11.350;2023-12-29T01:07:03;3.07;;;2.77;;
11139;SDS011;5624;49.388;11.350;2023-12-29T01:09:28;3.83;;;2.67;;
11139;SDS011;5624;49.388;11.350;2023-12-29T01:11:54;4.77;;;2.67;;
11139;SDS011;5624;49.388;11.350;2023-12-29T01:14:19;3.10;;;2.47;;
11139;SDS011;5624;49.388;11.350;2023-12-29T01:16:45;3.60;;;2.73;;
11139;SDS011;5624;49.388;11.350;2023-12-29T01:19:10;4.00;;;2.57;;
11139;SDS011;5624;49.388;11.350;2023-12-29T01:21:39;2.67;;;2.47;;
11139;SDS011;5624;49.388;11.350;2023-12-29T01:24:04;5.27;;;3.10;;
11139;SDS011;5624;49.388;11.350;2023-12-29T01:26:32;3.77;;;2.73;;
11139;SDS011;5624;49.388;11.350;2023-12-29T01:29:06;3.17;;;2.63;;
11139;SDS011;5624;49.388;11.350;2023-12-29T01:31:32;5.07;;;2.90;;
11139;SDS011;5624;49.388;11.350;2023-12-29T01:33:57;3.57;;;2.60;;
11139;SDS011;5624;49.388;11.350;2023-12-29T01:36:23;3.57;;;2.80;;
11139;SDS011;5624;49.388;11.350;2023-12-29T01:38:49;3.33;;;2.53;;
11139;SDS011;5624;49.388;11.350;2023-12-29T01:41:14;4.77;;;2.77;;
11139;SDS011;5624;49.388;11.350;2023-12-29T01:46:24;3.27;;;2.47;;
11139;SDS011;5624;49.388;11.350;2023-12-29T01:48:52;2.90;;;2.43;;
11139;SDS011;5624;49.388;11.350;2023-12-29T01:51:18;3.07;;;2.33;;
11139;SDS011;5624;49.388;11.350;2023-12-29T01:53:48;4.87;;;2.90;;
11139;SDS011;5624;49.388;11.350;2023-12-29T01:56:14;3.53;;;2.40;;
11139;SDS011;5624;49.388;11.350;2023-12-29T01:58:40;3.90;;;2.60;;
11139;SDS011;5624;49.388;11.350;2023-12-29T02:01:06;6.63;;;2.80;;
11139;SDS011;5624;49.388;11.350;2023-12-29T02:03:33;4.27;;;2.43;;
11139;SDS011;5624;49.388;11.350;2023-12-29T02:05:59;4.23;;;2.70;;
11139;SDS011;5624;49.388;11.350;2023-12-29T02:08:25;3.83;;;2.80;;
11139;SDS011;5624;49.388;11.350;2023-12-29T02:10:51;3.60;;;2.83;;
11139;SDS011;5624;49.388;11.350;2023-12-29T02:13:16;4.13;;;3.00;;
11139;SDS011;5624;49.388;11.350;2023-12-29T02:15:42;3.53;;;3.00;;
11139;SDS011;5624;49.388;11.350;2023-12-29T02:18:10;4.50;;;3.10;;
11139;SDS011;5624;49.388;11.350;2023-12-29T02:20:40;5.03;;;3.67;;
11139;SDS011;5624;49.388;11.350;2023-12-29T02:23:06;4.30;;;3.77;;
11139;SDS011;5624;49.388;11.350;2023-12-29T02:25:32;5.93;;;3.47;;
11139;SDS011;5624;49.388;11.350;2023-12-29T02:28:10;5.73;;;3.77;;
11139;SDS011;5624;49.388;11.350;2023-12-29T02:30:43;5.77;;;3.67;;
11139;SDS011;5624;49.388;11.350;2023-12-29T02:33:16;5.50;;;3.73;;
11139;SDS011;5624;49.388;11.350;2023-12-29T02:35:44;5.07;;;4.27;;
11139;SDS011;5624;49.388;11.350;2023-12-29T02:38:11;4.80;;;3.83;;
11139;SDS011;5624;49.388;11.350;2023-12-29T02:40:37;5.90;;;4.40;;
11139;SDS011;5624;49.388;11.350;2023-12-29T02:43:03;4.97;;;4.27;;
11139;SDS011;5624;49.388;11.350;2023-12-29T02:45:28;6.67;;;4.80;;
11139;SDS011;5624;49.388;11.350;2023-12-29T02:47:54;4.93;;;4.13;;
11139;SDS011;5624;49.388;11.350;2023-12-29T02:50:19;5.03;;;4.40;;
11139;SDS011;5624;49.388;11.350;2023-12-29T02:52:45;7.50;;;4.23;;
11139;SDS011;5624;49.388;11.350;2023-12-29T02:55:11;5.27;;;4.47;;
11139;SDS011;5624;49.388;11.350;2023-12-29T02:57:37;6.10;;;4.23;;
11139;SDS011;5624;49.388;11.350;2023-12-29T03:00:04;6.30;;;4.90;;
11139;SDS011;5624;49.388;11.350;2023-12-29T03:02:30;5.20;;;4.47;;
11139;SDS011;5624;49.388;11.350;2023-12-29T03:04:56;5.80;;;4.50;;
11139;SDS011;5624;49.388;11.350;2023-12-29T03:07:21;6.70;;;5.47;;
11139;SDS011;5624;49.388;11.350;2023-12-29T03:09:47;6.57;;;4.87;;
11139;SDS011;5624;49.388;11.350;2023-12-29T03:12:12;6.47;;;5.10;;
11139;SDS011;5624;49.388;11.350;2023-12-29T03:14:38;5.83;;;4.57;;
11139;SDS011;5624;49.388;11.350;2023-12-29T03:17:03;5.73;;;4.70;;
11139;SDS011;5624;49.388;11.350;2023-12-29T03:19:29;5.90;;;4.50;;
11139;SDS011;5624;49.388;11.350;2023-12-29T03:21:54;5.30;;;4.23;;
11139;SDS011;5624;49.388;11.350;2023-12-29T03:24:20;5.30;;;4.47;;
11139;SDS011;5624;49.388;11.350;2023-12-29T03:26:46;5.40;;;4.40;;
11139;SDS011;5624;49.388;11.350;2023-12-29T03:29:11;5.93;;;4.23;;
11139;SDS011;5624;49.388;11.350;2023-12-29T03:31:37;4.87;;;4.20;;
11139;SDS011;5624;49.388;11.350;2023-12-29T03:34:03;7.20;;;4.90;;
11139;SDS011;5624;49.388;11.350;2023-12-29T03:36:28;5.47;;;4.50;;
11139;SDS011;5624;49.388;11.350;2023-12-29T03:38:54;5.70;;;4.50;;
11139;SDS011;5624;49.388;11.350;2023-12-29T03:41:19;5.47;;;4.30;;
11139;SDS011;5624;49.388;11.350;2023-12-29T03:43:45;4.83;;;4.30;;
11139;SDS011;5624;49.388;11.350;2023-12-29T03:46:17;6.30;;;4.90;;
11139;SDS011;5624;49.388;11.350;2023-12-29T03:48:43;5.87;;;5.00;;
11139;SDS011;5624;49.388;11.350;2023-12-29T03:51:09;7.70;;;4.60;;
11139;SDS011;5624;49.388;11.350;2023-12-29T03:53:35;5.33;;;4.17;;
11139;SDS011;5624;49.388;11.350;2023-12-29T03:56:04;5.03;;;4.10;;
11139;SDS011;5624;49.388;11.350;2023-12-29T03:58:30;5.13;;;4.43;;
11139;SDS011;5624;49.388;11.350;2023-12-29T04:00:56;6.50;;;4.50;;
11139;SDS011;5624;49.388;11.350;2023-12-29T04:03:21;5.63;;;4.30;;
11139;SDS011;5624;49.388;11.350;2023-12-29T04:05:46;5.73;;;4.57;;
11139;SDS011;5624;49.388;11.350;2023-12-29T04:08:12;7.87;;;4.80;;
11139;SDS011;5624;49.388;11.350;2023-12-29T04:10:38;5.90;;;4.47;;
11139;SDS011;5624;49.388;11.350;2023-12-29T04:13:03;5.77;;;4.27;;
11139;SDS011;5624;49.388;11.350;2023-12-29T04:15:29;4.87;;;4.37;;
11139;SDS011;5624;49.388;11.350;2023-12-29T04:17:55;5.47;;;4.60;;
11139;SDS011;5624;49.388;11.350;2023-12-29T04:20:21;5.37;;;4.87;;
11139;SDS011;5624;49.388;11.350;2023-12-29T04:22:46;5.13;;;3.93;;
11139;SDS011;5624;49.388;11.350;2023-12-29T04:25:12;6.87;;;4.53;;
11139;SDS011;5624;49.388;11.350;2023-12-29T04:27:37;6.13;;;4.87;;
11139;SDS011;5624;49.388;11.350;2023-12-29T04:30:04;6.17;;;4.90;;
11139;SDS011;5624;49.388;11.350;2023-12-29T04:32:30;6.90;;;4.50;;
11139;SDS011;5624;49.388;11.350;2023-12-29T04:34:55;6.67;;;4.97;;
11139;SDS011;5624;49.388;11.350;2023-12-29T04:37:21;6.60;;;5.17;;
11139;SDS011;5624;49.388;11.350;2023-12-29T04:39:46;6.87;;;5.10;;
11139;SDS011;5624;49.388;11.350;2023-12-29T04:42:12;5.73;;;5.13;;
11139;SDS011;5624;49.388;11.350;2023-12-29T04:44:37;6.53;;;5.03;;
11139;SDS011;5624;49.388;11.350;2023-12-29T04:47:03;5.70;;;5.10;;
11139;SDS011;5624;49.388;11.350;2023-12-29T04:49:29;6.30;;;5.40;;
11139;SDS011;5624;49.388;11.350;2023-12-29T04:51:54;6.80;;;5.20;;
11139;SDS011;5624;49.388;11.350;2023-12-29T04:54:20;8.03;;;5.70;;
11139;SDS011;5624;49.388;11.350;2023-12-29T04:56:45;6.57;;;5.80;;
11139;SDS011;5624;49.388;11.350;2023-12-29T04:59:11;6.17;;;5.57;;
11139;SDS011;5624;49.388;11.350;2023-12-29T05:01:36;6.57;;;5.60;;
11139;SDS011;5624;49.388;11.350;2023-12-29T05:04:02;6.60;;;5.17;;
11139;SDS011;5624;49.388;11.350;2023-12-29T05:06:27;7.37;;;5.40;;
11139;SDS011;5624;49.388;11.350;2023-12-29T05:08:53;6.87;;;5.57;;
11139;SDS011;5624;49.388;11.350;2023-12-29T05:11:18;6.13;;;5.53;;
11139;SDS011;5624;49.388;11.350;2023-12-29T05:13:44;6.20;;;4.83;;
11139;SDS011;5624;49.388;11.350;2023-12-29T05:16:09;7.30;;;5.33;;
11139;SDS011;5624;49.388;11.350;2023-12-29T05:18:35;7.83;;;5.53;;
11139;SDS011;5624;49.388;11.350;2023-12-29T05:21:00;7.23;;;4.83;;
11139;SDS011;5624;49.388;11.350;2023-12-29T05:23:26;6.30;;;5.63;;
11139;SDS011;5624;49.388;11.350;2023-12-29T05:25:51;8.33;;;5.70;;
11139;SDS011;5624;49.388;11.350;2023-12-29T05:28:17;8.17;;;5.40;;
11139;SDS011;5624;49.388;11.350;2023-12-29T05:30:42;5.80;;;5.20;;
11139;SDS011;5624;49.388;11.350;2023-12-29T05:33:08;6.07;;;5.03;;
11139;SDS011;5624;49.388;11.350;2023-12-29T05:35:34;6.13;;;5.30;;
11139;SDS011;5624;49.388;11.350;2023-12-29T05:37:59;7.40;;;5.50;;
11139;SDS011;5624;49.388;11.350;2023-12-29T05:40:25;8.13;;;5.40;;
11139;SDS011;5624;49.388;11.350;2023-12-29T05:42:50;7.60;;;5.57;;
11139;SDS011;5624;49.388;11.350;2023-12-29T05:45:16;6.17;;;4.93;;
11139;SDS011;5624;49.388;11.350;2023-12-29T05:47:42;6.93;;;5.70;;
11139;SDS011;5624;49.388;11.350;2023-12-29T05:50:08;7.10;;;5.53;;
11139;SDS011;5624;49.388;11.350;2023-12-29T05:52:34;5.53;;;4.97;;
11139;SDS011;5624;49.388;11.350;2023-12-29T05:54:59;5.73;;;4.70;;
11139;SDS011;5624;49.388;11.350;2023-12-29T05:57:25;6.97;;;5.23;;
11139;SDS011;5624;49.388;11.350;2023-12-29T05:59:50;6.37;;;5.13;;
11139;SDS011;5624;49.388;11.350;2023-12-29T06:02:16;5.93;;;5.33;;
11139;SDS011;5624;49.388;11.350;2023-12-29T06:04:41;6.33;;;5.30;;
11139;SDS011;5624;49.388;11.350;2023-12-29T06:07:07;5.93;;;5.33;;
11139;SDS011;5624;49.388;11.350;2023-12-29T06:09:32;5.40;;;4.80;;
11139;SDS011;5624;49.388;11.350;2023-12-29T06:11:58;6.93;;;5.00;;
11139;SDS011;5624;49.388;11.350;2023-12-29T06:14:23;6.90;;;5.40;;
11139;SDS011;5624;49.388;11.350;2023-12-29T06:16:49;7.47;;;5.30;;
11139;SDS011;5624;49.388;11.350;2023-12-29T06:19:14;5.57;;;4.97;;
11139;SDS011;5624;49.388;11.350;2023-12-29T06:21:40;5.43;;;4.93;;
11139;SDS011;5624;49.388;11.350;2023-12-29T06:24:07;5.90;;;5.17;;
11139;SDS011;5624;49.388;11.350;2023-12-29T06:26:33;7.13;;;4.93;;
11139;SDS011;5624;49.388;11.350;2023-12-29T06:28:58;6.83;;;5.20;;
11139;SDS011;5624;49.388;11.350;2023-12-29T06:31:24;6.17;;;4.83;;
11139;SDS011;5624;49.388;11.350;2023-12-29T06:33:49;6.80;;;5.23;;
11139;SDS011;5624;49.388;11.350;2023-12-29T06:36:15;5.80;;;4.83;;
11139;SDS011;5624;49.388;11.350;2023-12-29T06:38:41;5.60;;;4.40;;
11139;SDS011;5624;49.388;11.350;2023-12-29T06:41:10;6.20;;;4.90;;
11139;SDS011;5624;49.388;11.350;2023-12-29T06:43:37;5.97;;;5.07;;
11139;SDS011;5624;49.388;11.350;2023-12-29T06:46:02;7.13;;;4.90;;
11139;SDS011;5624;49.388;11.350;2023-12-29T06:48:29;5.97;;;4.87;;
11139;SDS011;5624;49.388;11.350;2023-12-29T06:50:54;6.03;;;4.77;;
11139;SDS011;5624;49.388;11.350;2023-12-29T06:53:20;5.10;;;4.60;;
11139;SDS011;5624;49.388;11.350;2023-12-29T06:55:45;6.03;;;5.10;;
11139;SDS011;5624;49.388;11.350;2023-12-29T06:58:11;5.73;;;4.87;;
11139;SDS011;5624;49.388;11.350;2023-12-29T07:00:37;5.77;;;4.53;;
11139;SDS011;5624;49.388;11.350;2023-12-29T07:03:02;5.00;;;4.50;;
11139;SDS011;5624;49.388;11.350;2023-12-29T07:05:28;4.57;;;4.13;;
11139;SDS011;5624;49.388;11.350;2023-12-29T07:07:53;5.87;;;4.20;;
11139;SDS011;5624;49.388;11.350;2023-12-29T07:10:19;5.20;;;4.17;;
11139;SDS011;5624;49.388;11.350;2023-12-29T07:12:44;5.20;;;3.80;;
11139;SDS011;5624;49.388;11.350;2023-12-29T07:15:10;4.57;;;3.87;;
11139;SDS011;5624;49.388;11.350;2023-12-29T07:17:38;5.60;;;3.97;;
11139;SDS011;5624;49.388;11.350;2023-12-29T07:20:04;5.00;;;3.67;;
11139;SDS011;5624;49.388;11.350;2023-12-29T07:22:31;4.57;;;3.83;;
11139;SDS011;5624;49.388;11.350;2023-12-29T07:24:58;4.33;;;3.57;;
11139;SDS011;5624;49.388;11.350;2023-12-29T07:27:23;4.10;;;3.47;;
11139;SDS011;5624;49.388;11.350;2023-12-29T07:29:49;5.27;;;4.00;;
11139;SDS011;5624;49.388;11.350;2023-12-29T07:32:14;5.47;;;4.17;;
11139;SDS011;5624;49.388;11.350;2023-12-29T07:34:40;4.90;;;3.90;;
11139;SDS011;5624;49.388;11.350;2023-12-29T07:37:05;4.17;;;3.77;;
11139;SDS011;5624;49.388;11.350;2023-12-29T07:39:31;6.10;;;4.77;;
11139;SDS011;5624;49.388;11.350;2023-12-29T07:41:57;5.10;;;3.90;;
11139;SDS011;5624;49.388;11.350;2023-12-29T07:44:22;5.40;;;3.70;;
11139;SDS011;5624;49.388;11.350;2023-12-29T07:46:48;4.90;;;2.90;;
11139;SDS011;5624;49.388;11.350;2023-12-29T07:49:13;3.23;;;2.90;;
11139;SDS011;5624;49.388;11.350;2023-12-29T07:51:40;4.37;;;3.23;;
11139;SDS011;5624;49.388;11.350;2023-12-29T07:54:06;3.57;;;2.87;;
11139;SDS011;5624;49.388;11.350;2023-12-29T07:56:32;5.30;;;3.37;;
11139;SDS011;5624;49.388;11.350;2023-12-29T07:58:58;3.60;;;3.13;;
11139;SDS011;5624;49.388;11.350;2023-12-29T08:01:23;3.97;;;3.00;;
11139;SDS011;5624;49.388;11.350;2023-12-29T08:03:49;4.70;;;3.10;;
11139;SDS011;5624;49.388;11.350;2023-12-29T08:06:15;3.83;;;2.80;;
11139;SDS011;5624;49.388;11.350;2023-12-29T08:08:40;3.97;;;2.90;;
11139;SDS011;5624;49.388;11.350;2023-12-29T08:11:06;5.10;;;3.10;;
11139;SDS011;5624;49.388;11.350;2023-12-29T08:13:39;5.67;;;3.00;;
11139;SDS011;5624;49.388;11.350;2023-12-29T08:16:05;3.37;;;2.97;;
11139;SDS011;5624;49.388;11.350;2023-12-29T08:18:32;4.77;;;3.67;;
11139;SDS011;5624;49.388;11.350;2023-12-29T08:20:57;3.40;;;2.80;;
11139;SDS011;5624;49.388;11.350;2023-12-29T08:23:24;4.77;;;3.43;;
11139;SDS011;5624;49.388;11.350;2023-12-29T08:25:51;4.13;;;3.00;;
11139;SDS011;5624;49.388;11.350;2023-12-29T08:28:17;6.03;;;3.40;;
11139;SDS011;5624;49.388;11.350;2023-12-29T08:30:42;4.70;;;3.37;;
11139;SDS011;5624;49.388;11.350;2023-12-29T08:33:10;4.03;;;3.07;;
11139;SDS011;5624;49.388;11.350;2023-12-29T08:35:37;5.80;;;3.10;;
11139;SDS011;5624;49.388;11.350;2023-12-29T08:38:04;5.17;;;3.10;;
11139;SDS011;5624;49.388;11.350;2023-12-29T08:40:30;3.90;;;3.10;;
11139;SDS011;5624;49.388;11.350;2023-12-29T08:42:55;5.07;;;3.77;;
11139;SDS011;5624;49.388;11.350;2023-12-29T08:45:21;5.30;;;3.43;;
11139;SDS011;5624;49.388;11.350;2023-12-29T08:47:46;5.20;;;3.70;;
11139;SDS011;5624;49.388;11.350;2023-12-29T08:50:12;5.70;;;4.03;;
11139;SDS011;5624;49.388;11.350;2023-12-29T08:52:37;4.73;;;2.80;;
11139;SDS011;5624;49.388;11.350;2023-12-29T08:55:03;3.13;;;2.70;;
11139;SDS011;5624;49.388;11.350;2023-12-29T08:57:29;5.10;;;3.00;;
11139;SDS011;5624;49.388;11.350;2023-12-29T08:59:56;3.67;;;3.10;;
11139;SDS011;5624;49.388;11.350;2023-12-29T09:02:22;3.77;;;2.70;;
11139;SDS011;5624;49.388;11.350;2023-12-29T09:04:47;4.53;;;3.10;;
11139;SDS011;5624;49.388;11.350;2023-12-29T09:07:13;3.80;;;2.97;;
11139;SDS011;5624;49.388;11.350;2023-12-29T09:09:38;4.80;;;3.00;;
11139;SDS011;5624;49.388;11.350;2023-12-29T09:12:04;3.60;;;2.67;;
11139;SDS011;5624;49.388;11.350;2023-12-29T09:14:30;4.03;;;2.80;;
11139;SDS011;5624;49.388;11.350;2023-12-29T09:16:57;5.00;;;3.80;;
11139;SDS011;5624;49.388;11.350;2023-12-29T09:19:23;5.13;;;3.23;;
11139;SDS011;5624;49.388;11.350;2023-12-29T09:21:48;4.23;;;2.80;;
11139;SDS011;5624;49.388;11.350;2023-12-29T09:24:14;5.13;;;3.27;;
11139;SDS011;5624;49.388;11.350;2023-12-29T09:26:39;4.20;;;2.70;;
11139;SDS011;5624;49.388;11.350;2023-12-29T09:29:05;3.83;;;2.67;;
11139;SDS011;5624;49.388;11.350;2023-12-29T09:31:31;4.03;;;2.90;;
11139;SDS011;5624;49.388;11.350;2023-12-29T09:33:56;3.47;;;2.67;;
11139;SDS011;5624;49.388;11.350;2023-12-29T09:36:22;3.47;;;2.53;;
11139;SDS011;5624;49.388;11.350;2023-12-29T09:38:47;4.50;;;3.30;;
11139;SDS011;5624;49.388;11.350;2023-12-29T09:41:14;6.07;;;3.17;;
11139;SDS011;5624;49.388;11.350;2023-12-29T09:43:40;4.20;;;2.97;;
11139;SDS011;5624;49.388;11.350;2023-12-29T09:46:08;3.30;;;2.60;;
11139;SDS011;5624;49.388;11.350;2023-12-29T09:48:36;4.37;;;2.63;;
11139;SDS011;5624;49.388;11.350;2023-12-29T09:51:03;3.20;;;2.63;;
11139;SDS011;5624;49.388;11.350;2023-12-29T09:53:30;4.57;;;2.93;;
11139;SDS011;5624;49.388;11.350;2023-12-29T09:55:57;4.93;;;2.93;;
11139;SDS011;5624;49.388;11.350;2023-12-29T09:58:24;4.47;;;2.97;;
11139;SDS011;5624;49.388;11.350;2023-12-29T10:00:50;3.73;;;2.50;;
11139;SDS011;5624;49.388;11.350;2023-12-29T10:03:16;3.50;;;2.53;;
11139;SDS011;5624;49.388;11.350;2023-12-29T10:05:42;3.10;;;2.50;;
11139;SDS011;5624;49.388;11.350;2023-12-29T10:08:13;3.80;;;2.90;;
11139;SDS011;5624;49.388;11.350;2023-12-29T10:10:39;5.20;;;3.43;;
11139;SDS011;5624;49.388;11.350;2023-12-29T10:13:08;3.70;;;3.27;;
11139;SDS011;5624;49.388;11.350;2023-12-29T10:15:37;4.77;;;3.40;;
11139;SDS011;5624;49.388;11.350;2023-12-29T10:18:14;4.20;;;3.10;;
11139;SDS011;5624;49.388;11.350;2023-12-29T10:26:35;6.20;;;3.40;;
11139;SDS011;5624;49.388;11.350;2023-12-29T10:29:01;5.10;;;3.37;;
11139;SDS011;5624;49.388;11.350;2023-12-29T10:31:27;4.37;;;2.97;;
11139;SDS011;5624;49.388;11.350;2023-12-29T10:33:52;5.23;;;3.90;;
11139;SDS011;5624;49.388;11.350;2023-12-29T10:37:03;5.03;;;2.83;;
11139;SDS011;5624;49.388;11.350;2023-12-29T10:39:34;5.67;;;3.70;;
11139;SDS011;5624;49.388;11.350;2023-12-29T10:42:07;6.20;;;3.93;;
11139;SDS011;5624;49.388;11.350;2023-12-29T10:44:34;6.57;;;3.37;;
11139;SDS011;5624;49.388;11.350;2023-12-29T10:47:09;4.90;;;3.47;;
11139;SDS011;5624;49.388;11.350;2023-12-29T10:49:36;5.47;;;3.60;;
11139;SDS011;5624;49.388;11.350;2023-12-29T10:52:12;5.00;;;4.37;;
11139;SDS011;5624;49.388;11.350;2023-12-29T10:54:41;6.50;;;4.67;;
11139;SDS011;5624;49.388;11.350;2023-12-29T10:57:10;7.07;;;4.70;;
11139;SDS011;5624;49.388;11.350;2023-12-29T10:59:39;4.97;;;4.43;;
11139;SDS011;5624;49.388;11.350;2023-12-29T11:02:05;5.63;;;4.30;;
11139;SDS011;5624;49.388;11.350;2023-12-29T11:04:33;5.57;;;4.33;;
11139;SDS011;5624;49.388;11.350;2023-12-29T11:06:59;6.33;;;4.87;;
11139;SDS011;5624;49.388;11.350;2023-12-29T11:09:31;5.73;;;4.97;;
11139;SDS011;5624;49.388;11.350;2023-12-29T11:12:00;4.77;;;3.73;;
11139;SDS011;5624;49.388;11.350;2023-12-29T11:14:27;4.83;;;4.00;;
11139;SDS011;5624;49.388;11.350;2023-12-29T11:16:56;6.30;;;4.20;;
11139;SDS011;5624;49.388;11.350;2023-12-29T11:19:23;5.97;;;4.33;;
11139;SDS011;5624;49.388;11.350;2023-12-29T11:21:48;7.23;;;4.60;;
11139;SDS011;5624;49.388;11.350;2023-12-29T11:24:20;5.97;;;4.87;;
11139;SDS011;5624;49.388;11.350;2023-12-29T11:26:46;5.83;;;4.70;;
11139;SDS011;5624;49.388;11.350;2023-12-29T11:29:14;4.83;;;4.03;;
11139;SDS011;5624;49.388;11.350;2023-12-29T11:31:41;5.40;;;4.70;;
11139;SDS011;5624;49.388;11.350;2023-12-29T11:34:19;6.00;;;4.20;;
11139;SDS011;5624;49.388;11.350;2023-12-29T11:36:50;5.97;;;4.03;;
11139;SDS011;5624;49.388;11.350;2023-12-29T11:39:25;4.30;;;3.37;;
11139;SDS011;5624;49.388;11.350;2023-12-29T11:42:02;4.97;;;3.33;;
11139;SDS011;5624;49.388;11.350;2023-12-29T11:44:31;7.03;;;4.33;;
11139;SDS011;5624;49.388;11.350;2023-12-29T11:46:58;6.17;;;4.00;;
11139;SDS011;5624;49.388;11.350;2023-12-29T11:49:25;5.23;;;3.77;;
11139;SDS011;5624;49.388;11.350;2023-12-29T11:51:50;4.37;;;3.10;;
11139;SDS011;5624;49.388;11.350;2023-12-29T11:54:23;4.77;;;3.40;;
11139;SDS011;5624;49.388;11.350;2023-12-29T11:56:49;5.20;;;3.83;;
11139;SDS011;5624;49.388;11.350;2023-12-29T11:59:25;5.60;;;3.70;;
11139;SDS011;5624;49.388;11.350;2023-12-29T12:01:57;6.27;;;3.63;;
11139;SDS011;5624;49.388;11.350;2023-12-29T12:07:07;5.43;;;3.90;;
11139;SDS011;5624;49.388;11.350;2023-12-29T12:09:37;5.40;;;3.13;;
11139;SDS011;5624;49.388;11.350;2023-12-29T12:12:04;6.93;;;4.10;;
11139;SDS011;5624;49.388;11.350;2023-12-29T12:19:56;6.30;;;4.73;;
11139;SDS011;5624;49.388;11.350;2023-12-29T12:22:23;4.10;;;2.70;;
11139;SDS011;5624;49.388;11.350;2023-12-29T12:24:54;4.10;;;2.70;;
11139;SDS011;5624;49.388;11.350;2023-12-29T12:27:21;5.13;;;3.20;;
11139;SDS011;5624;49.388;11.350;2023-12-29T12:29:51;2.83;;;2.57;;
11139;SDS011;5624;49.388;11.350;2023-12-29T12:32:20;3.93;;;3.53;;
11139;SDS011;5624;49.388;11.350;2023-12-29T12:34:46;4.80;;;3.30;;
11139;SDS011;5624;49.388;11.350;2023-12-29T12:37:12;3.97;;;2.80;;
11139;SDS011;5624;49.388;11.350;2023-12-29T12:39:38;5.30;;;3.60;;
11139;SDS011;5624;49.388;11.350;2023-12-29T12:42:05;4.40;;;3.63;;
11139;SDS011;5624;49.388;11.350;2023-12-29T12:44:30;4.03;;;3.27;;
11139;SDS011;5624;49.388;11.350;2023-12-29T12:46:57;3.90;;;3.47;;
11139;SDS011;5624;49.388;11.350;2023-12-29T12:49:27;6.00;;;3.90;;
11139;SDS011;5624;49.388;11.350;2023-12-29T12:51:54;4.20;;;3.53;;
11139;SDS011;5624;49.388;11.350;2023-12-29T12:54:20;5.27;;;3.37;;
11139;SDS011;5624;49.388;11.350;2023-12-29T12:56:47;5.03;;;3.50;;
11139;SDS011;5624;49.388;11.350;2023-12-29T12:59:13;4.77;;;2.87;;
11139;SDS011;5624;49.388;11.350;2023-12-29T13:01:41;6.53;;;3.57;;
11139;SDS011;5624;49.388;11.350;2023-12-29T13:04:07;4.20;;;3.80;;
11139;SDS011;5624;49.388;11.350;2023-12-29T13:06:34;4.90;;;3.37;;
11139;SDS011;5624;49.388;11.350;2023-12-29T13:09:06;3.73;;;3.07;;
11139;SDS011;5624;49.388;11.350;2023-12-29T13:11:36;4.93;;;2.73;;
11139;SDS011;5624;49.388;11.350;2023-12-29T13:14:02;3.73;;;3.00;;
11139;SDS011;5624;49.388;11.350;2023-12-29T13:16:34;6.87;;;3.03;;
11139;SDS011;5624;49.388;11.350;2023-12-29T13:19:16;4.20;;;2.60;;
11139;SDS011;5624;49.388;11.350;2023-12-29T13:21:48;3.20;;;2.90;;
11139;SDS011;5624;49.388;11.350;2023-12-29T13:24:15;2.97;;;2.50;;
11139;SDS011;5624;49.388;11.350;2023-12-29T13:26:42;3.27;;;2.40;;
11139;SDS011;5624;49.388;11.350;2023-12-29T13:29:10;3.17;;;2.40;;
11139;SDS011;5624;49.388;11.350;2023-12-29T13:31:37;4.40;;;3.17;;
11139;SDS011;5624;49.388;11.350;2023-12-29T13:34:04;3.80;;;2.77;;
11139;SDS011;5624;49.388;11.350;2023-12-29T13:36:49;3.17;;;2.13;;
11139;SDS011;5624;49.388;11.350;2023-12-29T13:39:29;3.13;;;2.10;;
11139;SDS011;5624;49.388;11.350;2023-12-29T13:42:18;3.23;;;2.30;;
11139;SDS011;5624;49.388;11.350;2023-12-29T13:44:47;2.10;;;1.83;;
11139;SDS011;5624;49.388;11.350;2023-12-29T13:47:15;3.50;;;2.10;;
11139;SDS011;5624;49.388;11.350;2023-12-29T13:49:41;4.93;;;3.83;;
11139;SDS011;5624;49.388;11.350;2023-12-29T13:52:07;5.77;;;4.07;;
11139;SDS011;5624;49.388;11.350;2023-12-29T13:54:40;6.23;;;3.60;;
11139;SDS011;5624;49.388;11.350;2023-12-29T13:57:07;6.43;;;5.33;;
11139;SDS011;5624;49.388;11.350;2023-12-29T13:59:33;10.13;;;6.10;;
11139;SDS011;5624;49.388;11.350;2023-12-29T14:01:59;7.03;;;5.00;;
11139;SDS011;5624;49.388;11.350;2023-12-29T14:04:40;6.83;;;3.80;;
11139;SDS011;5624;49.388;11.350;2023-12-29T14:07:06;3.87;;;2.47;;
11139;SDS011;5624;49.388;11.350;2023-12-29T14:09:33;4.33;;;2.53;;
11139;SDS011;5624;49.388;11.350;2023-12-29T14:11:59;5.83;;;3.73;;
11139;SDS011;5624;49.388;11.350;2023-12-29T14:14:25;3.20;;;2.37;;
11139;SDS011;5624;49.388;11.350;2023-12-29T14:16:51;3.07;;;2.10;;
11139;SDS011;5624;49.388;11.350;2023-12-29T14:19:18;3.07;;;2.20;;
11139;SDS011;5624;49.388;11.350;2023-12-29T14:21:44;3.07;;;2.27;;
11139;SDS011;5624;49.388;11.350;2023-12-29T14:24:16;2.23;;;1.43;;
11139;SDS011;5624;49.388;11.350;2023-12-29T14:27:14;3.77;;;3.37;;
11139;SDS011;5624;49.388;11.350;2023-12-29T14:29:40;2.80;;;2.30;;
11139;SDS011;5624;49.388;11.350;2023-12-29T14:32:09;5.60;;;3.43;;
11139;SDS011;5624;49.388;11.350;2023-12-29T14:34:34;6.90;;;6.20;;
11139;SDS011;5624;49.388;11.350;2023-12-29T14:37:00;8.10;;;6.40;;
11139;SDS011;5624;49.388;11.350;2023-12-29T14:39:26;10.83;;;7.83;;
11139;SDS011;5624;49.388;11.350;2023-12-29T14:41:51;10.00;;;7.63;;
11139;SDS011;5624;49.388;11.350;2023-12-29T14:44:18;17.93;;;13.03;;
11139;SDS011;5624;49.388;11.350;2023-12-29T14:46:43;20.40;;;13.33;;
11139;SDS011;5624;49.388;11.350;2023-12-29T14:49:09;6.40;;;4.40;;
11139;SDS011;5624;49.388;11.350;2023-12-29T14:51:35;9.10;;;7.60;;
11139;SDS011;5624;49.388;11.350;2023-12-29T14:54:00;1.30;;;1.20;;
11139;SDS011;5624;49.388;11.350;2023-12-29T14:56:28;1.77;;;1.47;;
11139;SDS011;5624;49.388;11.350;2023-12-29T14:58:53;2.13;;;1.70;;
11139;SDS011;5624;49.388;11.350;2023-12-29T15:01:19;1.97;;;1.73;;
11139;SDS011;5624;49.388;11.350;2023-12-29T15:03:44;1.57;;;1.23;;